sensor_id;sensor_type;location;lat;lon;timestamp;pressure;altitude;pressure_sealevel;temperature
60936;BMP280;46804;51.786;19.520;2023-06-24T00:02:00;158963.06;;;18.55
60936;BMP280;46804;51.786;19.520;2023-06-24T00:06:02;158974.66;;;18.60
60936;BMP280;46804;51.786;19.520;2023-06-24T00:10:04;158986.28;;;18.64
60936;BMP280;46804;51.786;19.520;2023-06-24T00:14:04;158986.28;;;18.64
60936;BMP280;46804;51.786;19.520;2023-06-24T00:18:07;158983.66;;;18.63
60936;BMP280;46804;51.786;19.520;2023-06-24T00:22:08;158970.78;;;18.58
60936;BMP280;46804;51.786;19.520;2023-06-24T00:26:09;158987.56;;;18.65
60936;BMP280;46804;51.786;19.520;2023-06-24T00:30:10;158977.22;;;18.61
60936;BMP280;46804;51.786;19.520;2023-06-24T00:34:11;158960.44;;;18.54
60936;BMP280;46804;51.786;19.520;2023-06-24T00:38:11;158955.28;;;18.52
60936;BMP280;46804;51.786;19.520;2023-06-24T00:42:12;158968.16;;;18.57
60936;BMP280;46804;51.786;19.520;2023-06-24T00:46:13;158952.72;;;18.51
60936;BMP280;46804;51.786;19.520;2023-06-24T00:50:15;158930.78;;;18.43
60936;BMP280;46804;51.786;19.520;2023-06-24T00:54:17;158935.94;;;18.45
60936;BMP280;46804;51.786;19.520;2023-06-24T00:58:18;158932.06;;;18.43
60936;BMP280;46804;51.786;19.520;2023-06-24T01:02:21;158917.88;;;18.38
60936;BMP280;46804;51.786;19.520;2023-06-24T01:06:22;158921.72;;;18.39
60936;BMP280;46804;51.786;19.520;2023-06-24T01:10:24;158916.53;;;18.37
60936;BMP280;46804;51.786;19.520;2023-06-24T01:14:25;158852.06;;;18.13
60936;BMP280;46804;51.786;19.520;2023-06-24T01:18:33;158854.59;;;18.14
60936;BMP280;46804;51.786;19.520;2023-06-24T01:31:46;158812.00;;;17.98
60936;BMP280;46804;51.786;19.520;2023-06-24T01:35:49;158821.06;;;18.01
60936;BMP280;46804;51.786;19.520;2023-06-24T01:39:57;158818.44;;;18.00
60936;BMP280;46804;51.786;19.520;2023-06-24T01:44:01;158815.88;;;17.99
60936;BMP280;46804;51.786;19.520;2023-06-24T01:48:07;158824.88;;;18.02
60936;BMP280;46804;51.786;19.520;2023-06-24T01:52:10;158792.66;;;17.90
60936;BMP280;46804;51.786;19.520;2023-06-24T01:56:12;158792.66;;;17.90
60936;BMP280;46804;51.786;19.520;2023-06-24T02:00:15;158797.84;;;17.92
60936;BMP280;46804;51.786;19.520;2023-06-24T02:04:18;158809.44;;;17.97
60936;BMP280;46804;51.786;19.520;2023-06-24T02:08:20;158804.28;;;17.95
60936;BMP280;46804;51.786;19.520;2023-06-24T02:12:24;158808.13;;;17.96
60936;BMP280;46804;51.786;19.520;2023-06-24T02:16:26;158810.72;;;17.97
60936;BMP280;46804;51.786;19.520;2023-06-24T02:20:28;158805.56;;;17.95
60936;BMP280;46804;51.786;19.520;2023-06-24T02:24:31;158819.72;;;18.01
60936;BMP280;46804;51.786;19.520;2023-06-24T02:28:33;158823.59;;;18.02
60936;BMP280;46804;51.786;19.520;2023-06-24T02:32:34;158813.28;;;17.98
60936;BMP280;46804;51.786;19.520;2023-06-24T02:36:39;158835.28;;;18.06
60936;BMP280;46804;51.786;19.520;2023-06-24T02:40:39;158826.16;;;18.03
60936;BMP280;46804;51.786;19.520;2023-06-24T02:44:41;158835.28;;;18.06
60936;BMP280;46804;51.786;19.520;2023-06-24T02:48:42;158809.44;;;17.97
60936;BMP280;46804;51.786;19.520;2023-06-24T02:52:44;158815.88;;;17.99
60936;BMP280;46804;51.786;19.520;2023-06-24T02:56:46;158818.44;;;18.00
60936;BMP280;46804;51.786;19.520;2023-06-24T03:00:49;158804.28;;;17.95
60936;BMP280;46804;51.786;19.520;2023-06-24T03:04:50;158824.88;;;18.02
60936;BMP280;46804;51.786;19.520;2023-06-24T03:08:52;158822.34;;;18.02
60936;BMP280;46804;51.786;19.520;2023-06-24T03:12:53;158797.84;;;17.92
60936;BMP280;46804;51.786;19.520;2023-06-24T03:16:54;158822.34;;;18.02
60936;BMP280;46804;51.786;19.520;2023-06-24T03:20:55;158818.44;;;18.00
60936;BMP280;46804;51.786;19.520;2023-06-24T03:24:56;158821.06;;;18.01
60936;BMP280;46804;51.786;19.520;2023-06-24T03:28:57;158831.34;;;18.05
60936;BMP280;46804;51.786;19.520;2023-06-24T03:32:58;158846.88;;;18.11
60936;BMP280;46804;51.786;19.520;2023-06-24T03:36:59;158855.94;;;18.14
60936;BMP280;46804;51.786;19.520;2023-06-24T03:40:59;158854.59;;;18.14
60936;BMP280;46804;51.786;19.520;2023-06-24T03:45:04;158866.28;;;18.18
60936;BMP280;46804;51.786;19.520;2023-06-24T03:49:05;158881.72;;;18.24
60936;BMP280;46804;51.786;19.520;2023-06-24T03:53:08;158879.16;;;18.23
60936;BMP280;46804;51.786;19.520;2023-06-24T03:57:08;158911.38;;;18.36
60936;BMP280;46804;51.786;19.520;2023-06-24T04:01:09;158908.81;;;18.35
60936;BMP280;46804;51.786;19.520;2023-06-24T04:05:10;158919.16;;;18.38
60936;BMP280;46804;51.786;19.520;2023-06-24T04:09:11;158924.31;;;18.40
60936;BMP280;46804;51.786;19.520;2023-06-24T04:13:12;158912.72;;;18.36
60936;BMP280;46804;51.786;19.520;2023-06-24T04:17:13;158899.78;;;18.31
60936;BMP280;46804;51.786;19.520;2023-06-24T04:21:13;158914.00;;;18.37
60936;BMP280;46804;51.786;19.520;2023-06-24T04:25:15;158917.88;;;18.38
60936;BMP280;46804;51.786;19.520;2023-06-24T04:29:16;158943.66;;;18.48
60936;BMP280;46804;51.786;19.520;2023-06-24T04:33:17;158942.38;;;18.47
60936;BMP280;46804;51.786;19.520;2023-06-24T04:37:17;158964.31;;;18.56
60936;BMP280;46804;51.786;19.520;2023-06-24T04:41:18;158990.13;;;18.66
60936;BMP280;46804;51.786;19.520;2023-06-24T04:45:20;158984.94;;;18.64
60936;BMP280;46804;51.786;19.520;2023-06-24T04:49:21;159022.41;;;18.78
60936;BMP280;46804;51.786;19.520;2023-06-24T04:53:22;159046.91;;;18.87
60936;BMP280;46804;51.786;19.520;2023-06-24T04:57:30;159059.84;;;18.92
60936;BMP280;46804;51.786;19.520;2023-06-24T05:01:31;159077.97;;;18.99
60936;BMP280;46804;51.786;19.520;2023-06-24T05:05:32;159074.09;;;18.98
60936;BMP280;46804;51.786;19.520;2023-06-24T05:09:32;159071.53;;;18.97
60936;BMP280;46804;51.786;19.520;2023-06-24T05:13:33;159072.81;;;18.97
60936;BMP280;46804;51.786;19.520;2023-06-24T05:17:34;159092.16;;;19.05
60936;BMP280;46804;51.786;19.520;2023-06-24T05:21:34;159101.22;;;19.08
60936;BMP280;46804;51.786;19.520;2023-06-24T05:25:35;159118.00;;;19.14
60936;BMP280;46804;51.786;19.520;2023-06-24T05:29:36;159138.63;;;19.22
60936;BMP280;46804;51.786;19.520;2023-06-24T05:33:37;159121.84;;;19.16
60936;BMP280;46804;51.786;19.520;2023-06-24T05:37:38;159128.34;;;19.18
60936;BMP280;46804;51.786;19.520;2023-06-24T05:41:39;159098.59;;;19.07
60936;BMP280;46804;51.786;19.520;2023-06-24T05:45:39;159094.75;;;19.06
60936;BMP280;46804;51.786;19.520;2023-06-24T05:49:40;159165.75;;;19.33
60936;BMP280;46804;51.786;19.520;2023-06-24T05:53:41;159198.06;;;19.45
60936;BMP280;46804;51.786;19.520;2023-06-24T05:57:42;159207.06;;;19.48
60936;BMP280;46804;51.786;19.520;2023-06-24T06:01:44;159248.44;;;19.64
60936;BMP280;46804;51.786;19.520;2023-06-24T06:05:45;159270.34;;;19.73
60936;BMP280;46804;51.786;19.520;2023-06-24T06:09:46;159207.06;;;19.48
60936;BMP280;46804;51.786;19.520;2023-06-24T06:13:47;159213.50;;;19.51
60936;BMP280;46804;51.786;19.520;2023-06-24T06:17:47;159234.19;;;19.59
60936;BMP280;46804;51.786;19.520;2023-06-24T06:21:51;159154.13;;;19.28
60936;BMP280;46804;51.786;19.520;2023-06-24T06:25:52;159187.72;;;19.41
60936;BMP280;46804;51.786;19.520;2023-06-24T06:29:52;159169.63;;;19.34
60936;BMP280;46804;51.786;19.520;2023-06-24T06:33:53;159178.66;;;19.38
60936;BMP280;46804;51.786;19.520;2023-06-24T06:37:54;159208.41;;;19.49
60936;BMP280;46804;51.786;19.520;2023-06-24T06:41:54;159208.41;;;19.49
60936;BMP280;46804;51.786;19.520;2023-06-24T06:45:55;159223.84;;;19.55
60936;BMP280;46804;51.786;19.520;2023-06-24T06:49:56;159128.34;;;19.18
60936;BMP280;46804;51.786;19.520;2023-06-24T06:53:57;159154.13;;;19.28
60936;BMP280;46804;51.786;19.520;2023-06-24T06:57:57;159105.03;;;19.09
60936;BMP280;46804;51.786;19.520;2023-06-24T07:01:59;159132.16;;;19.20
60936;BMP280;46804;51.786;19.520;2023-06-24T07:05:59;159165.75;;;19.33
60936;BMP280;46804;51.786;19.520;2023-06-24T07:10:00;159074.09;;;18.98
60936;BMP280;46804;51.786;19.520;2023-06-24T07:14:01;159120.56;;;19.15
60936;BMP280;46804;51.786;19.520;2023-06-24T07:18:02;159148.97;;;19.26
60936;BMP280;46804;51.786;19.520;2023-06-24T07:22:02;159174.81;;;19.36
60936;BMP280;46804;51.786;19.520;2023-06-24T07:26:03;159176.09;;;19.37
60936;BMP280;46804;51.786;19.520;2023-06-24T07:30:05;159212.22;;;19.50
60936;BMP280;46804;51.786;19.520;2023-06-24T07:34:06;159055.97;;;18.91
60936;BMP280;46804;51.786;19.520;2023-06-24T07:38:06;159030.13;;;18.81
60936;BMP280;46804;51.786;19.520;2023-06-24T07:42:07;159072.81;;;18.97
60936;BMP280;46804;51.786;19.520;2023-06-24T07:46:08;159077.97;;;18.99
60936;BMP280;46804;51.786;19.520;2023-06-24T07:50:09;159118.00;;;19.14
60936;BMP280;46804;51.786;19.520;2023-06-24T07:54:11;159146.41;;;19.25
60936;BMP280;46804;51.786;19.520;2023-06-24T07:58:12;159094.75;;;19.06
60936;BMP280;46804;51.786;19.520;2023-06-24T08:02:12;159068.91;;;18.96
60936;BMP280;46804;51.786;19.520;2023-06-24T08:06:13;159054.69;;;18.90
60936;BMP280;46804;51.786;19.520;2023-06-24T08:10:14;159099.94;;;19.07
60936;BMP280;46804;51.786;19.520;2023-06-24T08:14:15;159062.41;;;18.93
60936;BMP280;46804;51.786;19.520;2023-06-24T08:18:15;159132.16;;;19.20
60936;BMP280;46804;51.786;19.520;2023-06-24T08:22:16;159008.19;;;18.72
60936;BMP280;46804;51.786;19.520;2023-06-24T08:26:17;159028.84;;;18.80
60936;BMP280;46804;51.786;19.520;2023-06-24T08:30:18;158988.84;;;18.65
60936;BMP280;46804;51.786;19.520;2023-06-24T08:34:18;158996.56;;;18.68
60936;BMP280;46804;51.786;19.520;2023-06-24T08:38:19;159028.84;;;18.80
60936;BMP280;46804;51.786;19.520;2023-06-24T08:42:20;159063.75;;;18.94
60936;BMP280;46804;51.786;19.520;2023-06-24T08:46:23;159081.81;;;19.01
60936;BMP280;46804;51.786;19.520;2023-06-24T08:50:27;159163.19;;;19.32
60936;BMP280;46804;51.786;19.520;2023-06-24T08:54:34;159152.84;;;19.28
60936;BMP280;46804;51.786;19.520;2023-06-24T08:58:35;159234.19;;;19.59
60936;BMP280;46804;51.786;19.520;2023-06-24T09:02:37;159332.41;;;19.96
60936;BMP280;46804;51.786;19.520;2023-06-24T09:06:38;159391.84;;;20.19
60936;BMP280;46804;51.786;19.520;2023-06-24T09:10:39;159323.38;;;19.93
60936;BMP280;46804;51.786;19.520;2023-06-24T09:14:40;159435.75;;;20.36
60936;BMP280;46804;51.786;19.520;2023-06-24T09:18:41;159400.88;;;20.22
60936;BMP280;46804;51.786;19.520;2023-06-24T09:22:42;159376.34;;;20.13
60936;BMP280;46804;51.786;19.520;2023-06-24T09:26:43;159409.94;;;20.26
60936;BMP280;46804;51.786;19.520;2023-06-24T09:30:47;159461.63;;;20.45
60936;BMP280;46804;51.786;19.520;2023-06-24T09:34:47;159464.19;;;20.46
60936;BMP280;46804;51.786;19.520;2023-06-24T09:38:48;159466.78;;;20.47
60936;BMP280;46804;51.786;19.520;2023-06-24T09:42:57;159539.25;;;20.75
60936;BMP280;46804;51.786;19.520;2023-06-24T09:46:58;159510.78;;;20.64
60936;BMP280;46804;51.786;19.520;2023-06-24T09:51:01;159482.31;;;20.53
60936;BMP280;46804;51.786;19.520;2023-06-24T09:55:03;159440.94;;;20.38
60936;BMP280;46804;51.786;19.520;2023-06-24T09:59:05;159530.16;;;20.72
60936;BMP280;46804;51.786;19.520;2023-06-24T10:03:06;159616.75;;;21.05
60936;BMP280;46804;51.786;19.520;2023-06-24T10:07:07;159668.47;;;21.24
60936;BMP280;46804;51.786;19.520;2023-06-24T10:11:08;159699.53;;;21.36
60936;BMP280;46804;51.786;19.520;2023-06-24T10:15:10;159819.84;;;21.82
60936;BMP280;46804;51.786;19.520;2023-06-24T10:19:19;159867.69;;;22.00
60936;BMP280;46804;51.786;19.520;2023-06-24T10:23:20;159875.41;;;22.03
60936;BMP280;46804;51.786;19.520;2023-06-24T10:27:21;159874.13;;;22.03
60936;BMP280;46804;51.786;19.520;2023-06-24T10:35:48;159940.19;;;22.28
60936;BMP280;46804;51.786;19.520;2023-06-24T10:43:49;159971.22;;;22.40
60936;BMP280;46804;51.786;19.520;2023-06-24T10:47:51;159999.69;;;22.50
60936;BMP280;46804;51.786;19.520;2023-06-24T10:51:57;159968.66;;;22.39
60936;BMP280;46804;51.786;19.520;2023-06-24T10:55:57;159889.69;;;22.09
60936;BMP280;46804;51.786;19.520;2023-06-24T11:00:00;159818.50;;;21.81
60936;BMP280;46804;51.786;19.520;2023-06-24T11:04:05;160010.03;;;22.54
60936;BMP280;46804;51.786;19.520;2023-06-24T11:08:07;160025.59;;;22.60
60936;BMP280;46804;51.786;19.520;2023-06-24T11:12:09;159989.31;;;22.47
60936;BMP280;46804;51.786;19.520;2023-06-24T11:16:10;159999.69;;;22.50
60936;BMP280;46804;51.786;19.520;2023-06-24T11:20:12;160054.06;;;22.71
60936;BMP280;46804;51.786;19.520;2023-06-24T11:24:13;159967.38;;;22.38
60936;BMP280;46804;51.786;19.520;2023-06-24T11:28:18;159971.22;;;22.40
60936;BMP280;46804;51.786;19.520;2023-06-24T11:32:19;160004.88;;;22.52
60936;BMP280;46804;51.786;19.520;2023-06-24T11:36:20;160002.31;;;22.51
60936;BMP280;46804;51.786;19.520;2023-06-24T11:40:21;160035.94;;;22.64
60936;BMP280;46804;51.786;19.520;2023-06-24T11:44:24;159865.13;;;21.99
60936;BMP280;46804;51.786;19.520;2023-06-24T11:48:28;159892.25;;;22.10
60936;BMP280;46804;51.786;19.520;2023-06-24T11:56:39;159633.56;;;21.11
60936;BMP280;46804;51.786;19.520;2023-06-24T12:00:41;159556.03;;;20.81
60936;BMP280;46804;51.786;19.520;2023-06-24T12:04:43;159589.59;;;20.94
60936;BMP280;46804;51.786;19.520;2023-06-24T12:08:44;159484.88;;;20.54
60936;BMP280;46804;51.786;19.520;2023-06-24T12:12:45;159378.91;;;20.14
60936;BMP280;46804;51.786;19.520;2023-06-24T12:16:47;159418.94;;;20.29
60936;BMP280;46804;51.786;19.520;2023-06-24T12:20:48;159208.41;;;19.49
60936;BMP280;46804;51.786;19.520;2023-06-24T12:24:48;159205.78;;;19.48
60936;BMP280;46804;51.786;19.520;2023-06-24T12:28:49;159190.28;;;19.42
60936;BMP280;46804;51.786;19.520;2023-06-24T12:32:50;159143.78;;;19.24
60936;BMP280;46804;51.786;19.520;2023-06-24T12:36:51;159192.88;;;19.43
60936;BMP280;46804;51.786;19.520;2023-06-24T12:40:52;159123.16;;;19.16
60936;BMP280;46804;51.786;19.520;2023-06-24T12:44:53;159046.91;;;18.87
60936;BMP280;46804;51.786;19.520;2023-06-24T12:48:53;159005.63;;;18.71
60936;BMP280;46804;51.786;19.520;2023-06-24T12:52:54;159070.19;;;18.96
60936;BMP280;46804;51.786;19.520;2023-06-24T12:56:55;159102.50;;;19.08
60936;BMP280;46804;51.786;19.520;2023-06-24T13:00:55;159076.66;;;18.99
60936;BMP280;46804;51.786;19.520;2023-06-24T13:04:56;159021.13;;;18.77
60936;BMP280;46804;51.786;19.520;2023-06-24T13:08:57;159013.34;;;18.74
60936;BMP280;46804;51.786;19.520;2023-06-24T13:12:58;159076.66;;;18.99
60936;BMP280;46804;51.786;19.520;2023-06-24T13:16:59;159079.25;;;19.00
60936;BMP280;46804;51.786;19.520;2023-06-24T13:20:59;159156.69;;;19.29
60936;BMP280;46804;51.786;19.520;2023-06-24T13:25:00;159063.75;;;18.94
60936;BMP280;46804;51.786;19.520;2023-06-24T13:29:01;159125.72;;;19.17
60936;BMP280;46804;51.786;19.520;2023-06-24T13:33:03;159177.38;;;19.37
60936;BMP280;46804;51.786;19.520;2023-06-24T13:37:04;159070.19;;;18.96
60936;BMP280;46804;51.786;19.520;2023-06-24T13:41:04;159133.44;;;19.20
60936;BMP280;46804;51.786;19.520;2023-06-24T13:45:05;159062.41;;;18.93
60936;BMP280;46804;51.786;19.520;2023-06-24T13:49:06;159225.19;;;19.55
60936;BMP280;46804;51.786;19.520;2023-06-24T13:53:07;159150.25;;;19.27
60936;BMP280;46804;51.786;19.520;2023-06-24T13:57:08;159136.06;;;19.21
60936;BMP280;46804;51.786;19.520;2023-06-24T14:01:09;159248.44;;;19.64
60936;BMP280;46804;51.786;19.520;2023-06-24T14:05:09;159315.59;;;19.90
60936;BMP280;46804;51.786;19.520;2023-06-24T14:09:10;159322.06;;;19.92
60936;BMP280;46804;51.786;19.520;2023-06-24T14:13:11;159335.00;;;19.97
60936;BMP280;46804;51.786;19.520;2023-06-24T14:17:11;159380.22;;;20.14
60936;BMP280;46804;51.786;19.520;2023-06-24T14:21:12;159336.28;;;19.98
60936;BMP280;46804;51.786;19.520;2023-06-24T14:25:13;159302.69;;;19.85
60936;BMP280;46804;51.786;19.520;2023-06-24T14:29:15;159400.88;;;20.22
60936;BMP280;46804;51.786;19.520;2023-06-24T14:33:16;159486.16;;;20.55
60936;BMP280;46804;51.786;19.520;2023-06-24T14:37:17;159629.69;;;21.10
60936;BMP280;46804;51.786;19.520;2023-06-24T14:41:17;159740.94;;;21.52
60936;BMP280;46804;51.786;19.520;2023-06-24T14:45:18;159669.75;;;21.25
60936;BMP280;46804;51.786;19.520;2023-06-24T14:49:19;159563.78;;;20.84
60936;BMP280;46804;51.786;19.520;2023-06-24T14:53:19;159590.94;;;20.95
60936;BMP280;46804;51.786;19.520;2023-06-24T14:57:20;159554.72;;;20.81
60936;BMP280;46804;51.786;19.520;2023-06-24T15:01:23;159565.06;;;20.85
60936;BMP280;46804;51.786;19.520;2023-06-24T15:05:24;159673.66;;;21.26
60936;BMP280;46804;51.786;19.520;2023-06-24T15:09:25;159676.25;;;21.27
60936;BMP280;46804;51.786;19.520;2023-06-24T15:13:26;159612.88;;;21.03
60936;BMP280;46804;51.786;19.520;2023-06-24T15:17:26;159652.94;;;21.18
60936;BMP280;46804;51.786;19.520;2023-06-24T15:21:27;159730.59;;;21.48
60936;BMP280;46804;51.786;19.520;2023-06-24T15:25:28;159708.59;;;21.40
60936;BMP280;46804;51.786;19.520;2023-06-24T15:29:29;159650.38;;;21.17
60936;BMP280;46804;51.786;19.520;2023-06-24T15:33:30;159668.47;;;21.24
60936;BMP280;46804;51.786;19.520;2023-06-24T15:37:31;159643.91;;;21.15
60936;BMP280;46804;51.786;19.520;2023-06-24T15:41:31;159631.00;;;21.10
60936;BMP280;46804;51.786;19.520;2023-06-24T15:45:32;159614.19;;;21.04
60936;BMP280;46804;51.786;19.520;2023-06-24T15:49:33;159566.34;;;20.85
60936;BMP280;46804;51.786;19.520;2023-06-24T15:53:34;159583.13;;;20.92
60936;BMP280;46804;51.786;19.520;2023-06-24T15:57:34;159616.75;;;21.05
60936;BMP280;46804;51.786;19.520;2023-06-24T16:01:35;159594.78;;;20.96
60936;BMP280;46804;51.786;19.520;2023-06-24T16:05:36;159579.31;;;20.90
60936;BMP280;46804;51.786;19.520;2023-06-24T16:09:37;159614.19;;;21.04
60936;BMP280;46804;51.786;19.520;2023-06-24T16:13:38;159624.56;;;21.08
60936;BMP280;46804;51.786;19.520;2023-06-24T16:17:39;159593.50;;;20.96
60936;BMP280;46804;51.786;19.520;2023-06-24T16:21:39;159565.06;;;20.85
60936;BMP280;46804;51.786;19.520;2023-06-24T16:25:40;159597.38;;;20.97
60936;BMP280;46804;51.786;19.520;2023-06-24T16:29:41;159574.13;;;20.88
60936;BMP280;46804;51.786;19.520;2023-06-24T16:33:42;159602.56;;;20.99
60936;BMP280;46804;51.786;19.520;2023-06-24T16:37:43;159562.50;;;20.84
60936;BMP280;46804;51.786;19.520;2023-06-24T16:41:43;159568.94;;;20.86
60936;BMP280;46804;51.786;19.520;2023-06-24T16:45:44;159556.03;;;20.81
60936;BMP280;46804;51.786;19.520;2023-06-24T16:49:45;159565.06;;;20.85
60936;BMP280;46804;51.786;19.520;2023-06-24T16:53:48;159548.25;;;20.78
60936;BMP280;46804;51.786;19.520;2023-06-24T16:57:49;159513.34;;;20.65
60936;BMP280;46804;51.786;19.520;2023-06-24T17:01:50;159521.09;;;20.68
60936;BMP280;46804;51.786;19.520;2023-06-24T17:05:50;159510.78;;;20.64
60936;BMP280;46804;51.786;19.520;2023-06-24T17:09:51;159474.53;;;20.50
60936;BMP280;46804;51.786;19.520;2023-06-24T17:13:52;159480.97;;;20.53
60936;BMP280;46804;51.786;19.520;2023-06-24T17:17:53;159471.97;;;20.49
60936;BMP280;46804;51.786;19.520;2023-06-24T17:21:54;159430.63;;;20.34
60936;BMP280;46804;51.786;19.520;2023-06-24T17:25:54;159451.28;;;20.42
60936;BMP280;46804;51.786;19.520;2023-06-24T17:29:55;159426.75;;;20.32
60936;BMP280;46804;51.786;19.520;2023-06-24T17:33:56;159391.84;;;20.19
60936;BMP280;46804;51.786;19.520;2023-06-24T17:37:57;159386.69;;;20.17
60936;BMP280;46804;51.786;19.520;2023-06-24T17:41:58;159391.84;;;20.19
60936;BMP280;46804;51.786;19.520;2023-06-24T17:45:58;159363.44;;;20.08
60936;BMP280;46804;51.786;19.520;2023-06-24T17:49:59;159341.47;;;20.00
60936;BMP280;46804;51.786;19.520;2023-06-24T17:54:00;159315.59;;;19.90
60936;BMP280;46804;51.786;19.520;2023-06-24T17:58:04;159309.16;;;19.87
60936;BMP280;46804;51.786;19.520;2023-06-24T18:02:04;159310.44;;;19.88
60936;BMP280;46804;51.786;19.520;2023-06-24T18:06:05;159296.25;;;19.82
60936;BMP280;46804;51.786;19.520;2023-06-24T18:10:06;159236.81;;;19.60
60936;BMP280;46804;51.786;19.520;2023-06-24T18:14:07;159220.00;;;19.53
60936;BMP280;46804;51.786;19.520;2023-06-24T18:18:07;159223.84;;;19.55
60936;BMP280;46804;51.786;19.520;2023-06-24T18:22:08;159213.50;;;19.51
60936;BMP280;46804;51.786;19.520;2023-06-24T18:26:09;159182.53;;;19.39
60936;BMP280;46804;51.786;19.520;2023-06-24T18:30:10;159146.41;;;19.25
60936;BMP280;46804;51.786;19.520;2023-06-24T18:34:11;159127.00;;;19.18
60936;BMP280;46804;51.786;19.520;2023-06-24T18:38:11;159118.00;;;19.14
60936;BMP280;46804;51.786;19.520;2023-06-24T18:42:12;159096.03;;;19.06
60936;BMP280;46804;51.786;19.520;2023-06-24T18:46:13;159096.03;;;19.06
60936;BMP280;46804;51.786;19.520;2023-06-24T18:50:13;159062.41;;;18.93
60936;BMP280;46804;51.786;19.520;2023-06-24T18:54:14;159058.53;;;18.92
60936;BMP280;46804;51.786;19.520;2023-06-24T18:58:17;159021.13;;;18.77
60936;BMP280;46804;51.786;19.520;2023-06-24T19:02:18;158977.22;;;18.61
60936;BMP280;46804;51.786;19.520;2023-06-24T19:06:18;158963.06;;;18.55
60936;BMP280;46804;51.786;19.520;2023-06-24T19:10:19;158942.38;;;18.47
60936;BMP280;46804;51.786;19.520;2023-06-24T19:14:20;158924.31;;;18.40
60936;BMP280;46804;51.786;19.520;2023-06-24T19:18:21;158916.53;;;18.37
60936;BMP280;46804;51.786;19.520;2023-06-24T19:22:21;158903.66;;;18.33
60936;BMP280;46804;51.786;19.520;2023-06-24T19:26:22;158836.56;;;18.07
60936;BMP280;46804;51.786;19.520;2023-06-24T19:30:23;158830.06;;;18.04
60936;BMP280;46804;51.786;19.520;2023-06-24T19:34:24;158822.34;;;18.02
60936;BMP280;46804;51.786;19.520;2023-06-24T19:38:24;158790.06;;;17.89
60936;BMP280;46804;51.786;19.520;2023-06-24T19:42:25;158764.28;;;17.79
60936;BMP280;46804;51.786;19.520;2023-06-24T19:46:26;158761.69;;;17.78
60936;BMP280;46804;51.786;19.520;2023-06-24T19:50:26;158737.19;;;17.69
60936;BMP280;46804;51.786;19.520;2023-06-24T19:54:27;158707.53;;;17.58
60936;BMP280;46804;51.786;19.520;2023-06-24T19:58:27;158694.59;;;17.53
60936;BMP280;46804;51.786;19.520;2023-06-24T20:02:28;158699.75;;;17.55
60936;BMP280;46804;51.786;19.520;2023-06-24T20:06:29;158676.56;;;17.46
60936;BMP280;46804;51.786;19.520;2023-06-24T20:10:30;158663.66;;;17.41
60936;BMP280;46804;51.786;19.520;2023-06-24T20:14:31;158635.31;;;17.30
60936;BMP280;46804;51.786;19.520;2023-06-24T20:18:32;158619.81;;;17.24
60936;BMP280;46804;51.786;19.520;2023-06-24T20:22:32;158604.38;;;17.18
60936;BMP280;46804;51.786;19.520;2023-06-24T20:26:33;158590.13;;;17.13
60936;BMP280;46804;51.786;19.520;2023-06-24T20:30:34;158586.22;;;17.11
60936;BMP280;46804;51.786;19.520;2023-06-24T20:34:35;158559.19;;;17.01
60936;BMP280;46804;51.786;19.520;2023-06-24T20:38:36;158556.59;;;17.00
60936;BMP280;46804;51.786;19.520;2023-06-24T20:42:39;158554.03;;;16.99
60936;BMP280;46804;51.786;19.520;2023-06-24T20:46:40;158533.38;;;16.91
60936;BMP280;46804;51.786;19.520;2023-06-24T20:50:41;158520.50;;;16.86
60936;BMP280;46804;51.786;19.520;2023-06-24T20:54:41;158521.78;;;16.87
60936;BMP280;46804;51.786;19.520;2023-06-24T20:58:42;158514.06;;;16.84
60936;BMP280;46804;51.786;19.520;2023-06-24T21:02:42;158503.75;;;16.80
60936;BMP280;46804;51.786;19.520;2023-06-24T21:06:43;158498.59;;;16.78
60936;BMP280;46804;51.786;19.520;2023-06-24T21:10:44;158471.50;;;16.67
60936;BMP280;46804;51.786;19.520;2023-06-24T21:14:44;158456.03;;;16.62
60936;BMP280;46804;51.786;19.520;2023-06-24T21:18:45;158457.34;;;16.62
60936;BMP280;46804;51.786;19.520;2023-06-24T21:22:46;158452.19;;;16.60
60936;BMP280;46804;51.786;19.520;2023-06-24T21:26:47;158440.59;;;16.56
60936;BMP280;46804;51.786;19.520;2023-06-24T21:30:47;158436.72;;;16.54
60936;BMP280;46804;51.786;19.520;2023-06-24T21:34:48;158431.53;;;16.52
60936;BMP280;46804;51.786;19.520;2023-06-24T21:38:49;158425.13;;;16.50
60936;BMP280;46804;51.786;19.520;2023-06-24T21:42:51;158413.50;;;16.45
60936;BMP280;46804;51.786;19.520;2023-06-24T21:46:52;158405.81;;;16.42
60936;BMP280;46804;51.786;19.520;2023-06-24T21:50:52;158404.47;;;16.42
60936;BMP280;46804;51.786;19.520;2023-06-24T21:54:53;158392.88;;;16.37
60936;BMP280;46804;51.786;19.520;2023-06-24T21:58:54;158373.56;;;16.30
60936;BMP280;46804;51.786;19.520;2023-06-24T22:02:54;158369.69;;;16.29
60936;BMP280;46804;51.786;19.520;2023-06-24T22:06:55;158340.06;;;16.17
60936;BMP280;46804;51.786;19.520;2023-06-24T22:10:56;158330.97;;;16.14
60936;BMP280;46804;51.786;19.520;2023-06-24T22:14:57;158327.13;;;16.12
60936;BMP280;46804;51.786;19.520;2023-06-24T22:18:58;158321.97;;;16.10
60936;BMP280;46804;51.786;19.520;2023-06-24T22:22:58;158318.09;;;16.09
60936;BMP280;46804;51.786;19.520;2023-06-24T22:26:59;158305.22;;;16.04
60936;BMP280;46804;51.786;19.520;2023-06-24T22:31:00;158298.78;;;16.01
60936;BMP280;46804;51.786;19.520;2023-06-24T22:35:01;158293.63;;;15.99
60936;BMP280;46804;51.786;19.520;2023-06-24T22:39:01;158287.19;;;15.97
60936;BMP280;46804;51.786;19.520;2023-06-24T22:43:02;158262.69;;;15.88
60936;BMP280;46804;51.786;19.520;2023-06-24T22:47:03;158257.56;;;15.86
60936;BMP280;46804;51.786;19.520;2023-06-24T22:51:04;158251.09;;;15.83